createdAt,value
2022-12-17T00:00:59.457Z,100136.97
2022-12-17T00:03:43.086Z,100150.72
2022-12-17T00:06:26.600Z,100151.89
2022-12-17T00:09:09.804Z,100146.72
2022-12-17T00:11:52.600Z,100141.39
2022-12-17T00:14:39.433Z,100140.70
2022-12-17T00:17:22.129Z,100146.23
2022-12-17T00:20:05.688Z,100151.20
2022-12-17T00:22:48.782Z,100155.04
2022-12-17T00:25:31.923Z,100154.16
2022-12-17T00:28:14.927Z,100145.77
2022-12-17T00:31:09.736Z,100146.38
2022-12-17T00:33:52.725Z,100162.80
2022-12-17T00:36:35.092Z,100170.40
2022-12-17T00:39:19.550Z,100170.14
2022-12-17T00:42:02.953Z,100177.02
2022-12-17T00:44:45.986Z,100176.45
2022-12-17T00:47:29.488Z,100179.17
2022-12-17T00:50:12.953Z,100189.30
2022-12-17T00:52:57.722Z,100194.86
2022-12-17T00:55:46.361Z,100188.70
2022-12-17T00:58:29.757Z,100191.02
2022-12-17T01:01:16.357Z,100193.98
2022-12-17T01:03:59.262Z,100198.63
2022-12-17T01:06:41.484Z,100196.90
2022-12-17T01:09:24.811Z,100200.17
2022-12-17T01:12:07.881Z,100203.94
2022-12-17T01:14:51.709Z,100199.71
2022-12-17T01:17:34.708Z,100202.41
2022-12-17T01:20:17.514Z,100207.64
2022-12-17T01:23:00.445Z,100204.15
2022-12-17T01:25:43.492Z,100193.00
2022-12-17T01:28:27.009Z,100189.80
2022-12-17T01:31:10.097Z,100190.19
2022-12-17T01:33:53.231Z,100196.02
2022-12-17T01:36:36.544Z,100199.55
2022-12-17T01:39:19.614Z,100206.05
2022-12-17T01:42:02.832Z,100202.92
2022-12-17T01:45:14.057Z,100202.92
2022-12-17T01:47:58.365Z,100209.48
2022-12-17T01:50:42.638Z,100208.48
2022-12-17T01:53:26.365Z,100205.42
2022-12-17T01:56:09.517Z,100208.02
2022-12-17T01:58:52.935Z,100213.73
2022-12-17T02:01:36.710Z,100221.34
2022-12-17T02:04:19.652Z,100225.02
2022-12-17T02:07:07.642Z,100233.30
2022-12-17T02:09:55.757Z,100235.92
2022-12-17T02:12:43.703Z,100239.58
2022-12-17T02:15:31.265Z,100235.65
2022-12-17T02:18:17.348Z,100230.40
2022-12-17T02:21:03.399Z,100230.89
2022-12-17T02:23:54.601Z,100226.27
2022-12-17T02:26:40.303Z,100221.63
2022-12-17T02:29:25.489Z,100222.61
2022-12-17T02:32:08.808Z,100221.80
2022-12-17T02:35:16.009Z,100219.33
2022-12-17T02:38:04.210Z,100215.79
2022-12-17T02:40:47.596Z,100209.87
2022-12-17T02:43:30.893Z,100212.73
2022-12-17T02:46:22.555Z,100214.16
2022-12-17T02:49:07.639Z,100215.90
2022-12-17T02:51:50.857Z,100215.29
2022-12-17T02:54:34.004Z,100217.95
2022-12-17T02:57:17.336Z,100219.56
2022-12-17T03:00:00.801Z,100215.27
2022-12-17T03:02:43.944Z,100210.33
2022-12-17T03:05:44.589Z,100211.16
2022-12-17T03:08:28.607Z,100213.04
2022-12-17T03:11:12.497Z,100211.70
2022-12-17T03:13:55.634Z,100216.24
2022-12-17T03:16:38.709Z,100216.82
2022-12-17T03:19:21.919Z,100213.66
2022-12-17T03:22:04.959Z,100215.72
2022-12-17T03:24:49.438Z,100213.83
2022-12-17T03:27:32.468Z,100221.31
2022-12-17T03:30:15.825Z,100222.30
2022-12-17T03:33:10.425Z,100225.27
2022-12-17T03:35:53.892Z,100224.86
2022-12-17T03:38:36.947Z,100223.98
2022-12-17T03:41:16.304Z,100226.15
2022-12-17T03:43:59.420Z,100233.58
2022-12-17T03:46:42.401Z,100237.24
2022-12-17T03:49:25.419Z,100228.35
2022-12-17T03:52:08.560Z,100223.90
2022-12-17T03:54:51.551Z,100222.68
2022-12-17T03:57:34.912Z,100225.88
2022-12-17T04:00:17.780Z,100231.16
2022-12-17T04:03:01.005Z,100237.24
2022-12-17T04:05:44.631Z,100239.06
2022-12-17T04:08:28.298Z,100236.15
2022-12-17T04:11:11.424Z,100214.90
2022-12-17T04:13:55.067Z,100211.48
2022-12-17T04:16:37.626Z,100225.39
2022-12-17T04:19:20.634Z,100234.14
2022-12-17T04:22:03.396Z,100239.52
2022-12-17T04:24:46.681Z,100240.59
2022-12-17T04:27:29.635Z,100243.03
2022-12-17T04:30:24.291Z,100251.48
2022-12-17T04:33:06.965Z,100262.71
2022-12-17T04:35:49.905Z,100275.00
2022-12-17T04:38:33.345Z,100286.23
2022-12-17T04:41:16.593Z,100292.04
2022-12-17T04:44:02.911Z,100290.40
2022-12-17T04:46:46.840Z,100292.95
2022-12-17T04:49:29.915Z,100298.92
2022-12-17T04:52:12.949Z,100304.38
2022-12-17T04:54:55.957Z,100311.17
2022-12-17T04:57:39.439Z,100314.82
2022-12-17T05:00:22.409Z,100327.95
2022-12-17T05:03:06.101Z,100335.60
2022-12-17T05:05:49.184Z,100338.89
2022-12-17T05:08:35.678Z,100340.05
2022-12-17T05:11:23.035Z,100344.62
2022-12-17T05:14:06.347Z,100352.23
2022-12-17T05:16:49.415Z,100353.29
2022-12-17T05:19:32.632Z,100354.27
2022-12-17T05:22:15.370Z,100354.60
2022-12-17T05:24:54.713Z,100356.30
2022-12-17T05:27:37.838Z,100356.37
2022-12-17T05:30:20.664Z,100360.16
2022-12-17T05:33:03.824Z,100361.79
2022-12-17T05:35:46.859Z,100349.20
2022-12-17T05:38:30.148Z,100350.56
2022-12-17T05:41:14.184Z,100348.55
2022-12-17T05:43:57.125Z,100355.69
2022-12-17T05:46:40.433Z,100353.35
2022-12-17T05:49:23.537Z,100346.77
2022-12-17T05:52:06.574Z,100343.40
2022-12-17T05:54:49.653Z,100351.85
2022-12-17T05:57:33.262Z,100350.91
2022-12-17T06:00:16.420Z,100360.69
2022-12-17T06:03:14.322Z,100361.35
2022-12-17T06:05:57.363Z,100357.71
2022-12-17T06:08:40.842Z,100353.38
2022-12-17T06:11:23.832Z,100357.94
2022-12-17T06:14:06.693Z,100358.04
2022-12-17T06:16:49.879Z,100353.86
2022-12-17T06:19:33.107Z,100360.09
2022-12-17T06:22:16.118Z,100356.71
2022-12-17T06:24:59.365Z,100366.15
2022-12-17T06:27:42.603Z,100375.16
2022-12-17T06:30:26.352Z,100380.46
2022-12-17T06:33:09.090Z,100389.04
2022-12-17T06:35:52.524Z,100398.69
2022-12-17T06:38:35.497Z,100411.52
2022-12-17T06:41:20.667Z,100412.31
2022-12-17T06:44:03.500Z,100418.36
2022-12-17T06:46:46.333Z,100424.29
2022-12-17T06:49:29.522Z,100436.95
2022-12-17T06:52:27.171Z,100443.96
2022-12-17T06:55:10.425Z,100444.42
2022-12-17T06:57:53.504Z,100440.97
2022-12-17T07:00:36.992Z,100439.55
2022-12-17T07:03:20.370Z,100435.41
2022-12-17T07:06:03.786Z,100434.74
2022-12-17T07:08:47.215Z,100440.29
2022-12-17T07:11:30.271Z,100438.86
2022-12-17T07:14:13.308Z,100448.48
2022-12-17T07:16:56.467Z,100453.02
2022-12-17T07:19:39.662Z,100456.21
2022-12-17T07:22:22.622Z,100452.30
2022-12-17T07:25:05.742Z,100454.64
2022-12-17T07:27:49.128Z,100454.58
2022-12-17T07:30:32.270Z,100459.71
2022-12-17T07:33:21.150Z,100464.73
2022-12-17T07:36:00.566Z,100462.98
2022-12-17T07:38:43.179Z,100468.48
2022-12-17T07:41:26.789Z,100469.99
2022-12-17T07:44:10.055Z,100476.17
2022-12-17T07:46:53.576Z,100484.67
2022-12-17T07:49:36.476Z,100492.35
2022-12-17T07:52:19.500Z,100490.13
2022-12-17T07:55:02.413Z,100495.86
2022-12-17T07:57:45.661Z,100496.84
2022-12-17T08:00:29.762Z,100492.79
2022-12-17T08:03:16.639Z,100492.44
2022-12-17T08:05:59.649Z,100503.79
2022-12-17T08:08:42.667Z,100505.76
2022-12-17T08:11:25.589Z,100507.85
2022-12-17T08:14:09.692Z,100509.39
2022-12-17T08:16:52.825Z,100504.99
2022-12-17T08:19:37.036Z,100505.98
2022-12-17T08:22:20.228Z,100513.95
2022-12-17T08:24:59.680Z,100514.93
2022-12-17T08:27:42.628Z,100519.59
2022-12-17T08:30:26.236Z,100523.20
2022-12-17T08:33:09.344Z,100528.54
2022-12-17T08:35:48.708Z,100530.09
2022-12-17T08:38:31.609Z,100535.02
2022-12-17T08:41:14.776Z,100537.73
2022-12-17T08:43:57.764Z,100539.27
2022-12-17T08:46:40.540Z,100544.20
2022-12-17T08:49:23.870Z,100546.79
2022-12-17T08:52:07.219Z,100547.06
2022-12-17T08:54:50.122Z,100548.73
2022-12-17T08:57:33.195Z,100548.52
2022-12-17T09:00:16.550Z,100550.13
2022-12-17T09:02:59.966Z,100562.02
2022-12-17T09:05:43.034Z,100566.14
2022-12-17T09:08:22.824Z,100567.35
2022-12-17T09:11:06.069Z,100568.38
2022-12-17T09:13:49.476Z,100570.41
2022-12-17T09:16:32.511Z,100571.73
2022-12-17T09:19:15.522Z,100573.80
2022-12-17T09:21:58.843Z,100577.09
2022-12-17T09:24:42.338Z,100581.56
2022-12-17T09:27:25.850Z,100584.23
2022-12-17T09:30:09.519Z,100587.69
2022-12-17T09:32:54.759Z,100590.27
2022-12-17T09:35:37.752Z,100597.95
2022-12-17T09:38:21.290Z,100597.45
2022-12-17T09:41:07.629Z,100597.74
2022-12-17T09:43:54.887Z,100600.64
2022-12-17T09:46:45.343Z,100597.66
2022-12-17T09:49:34.953Z,100599.07
2022-12-17T09:52:18.087Z,100595.80
2022-12-17T09:55:03.097Z,100595.60
2022-12-17T09:57:47.794Z,100597.30
2022-12-17T10:00:35.044Z,100598.36
2022-12-17T10:03:18.163Z,100598.08
2022-12-17T10:06:02.667Z,100598.27
2022-12-17T10:08:46.426Z,100605.99
2022-12-17T10:11:37.404Z,100607.54
2022-12-17T10:14:20.937Z,100603.85
2022-12-17T10:17:09.899Z,100600.06
2022-12-17T10:19:56.971Z,100609.91
2022-12-17T10:22:40.546Z,100619.47
2022-12-17T10:25:24.135Z,100622.34
2022-12-17T10:28:07.437Z,100621.42
2022-12-17T10:30:51.061Z,100632.56
2022-12-17T10:33:37.862Z,100638.98
2022-12-17T10:36:21.293Z,100638.79
2022-12-17T10:39:12.322Z,100635.58
2022-12-17T10:41:59.376Z,100642.05
2022-12-17T10:44:45.219Z,100651.04
2022-12-17T10:47:31.590Z,100651.36
2022-12-17T10:50:17.013Z,100643.70
2022-12-17T10:53:03.074Z,100638.22
2022-12-17T10:55:47.341Z,100641.04
2022-12-17T10:58:32.105Z,100647.66
2022-12-17T11:01:21.136Z,100644.48
2022-12-17T11:04:08.456Z,100649.34
2022-12-17T11:06:53.031Z,100656.15
2022-12-17T11:09:43.211Z,100659.65
2022-12-17T11:12:31.160Z,100658.79
2022-12-17T11:15:16.035Z,100658.96
2022-12-17T11:17:59.699Z,100659.02
2022-12-17T11:20:44.771Z,100652.61
2022-12-17T11:23:33.181Z,100653.56
2022-12-17T11:26:18.601Z,100644.53
2022-12-17T11:29:01.885Z,100648.30
2022-12-17T11:31:57.397Z,100651.84
2022-12-17T11:34:44.980Z,100657.52
2022-12-17T11:37:33.630Z,100656.52
2022-12-17T11:40:20.913Z,100657.36
2022-12-17T11:43:08.745Z,100670.89
2022-12-17T11:45:55.593Z,100674.15
2022-12-17T11:48:42.450Z,100677.87
2022-12-17T11:51:28.282Z,100674.80
2022-12-17T11:54:16.315Z,100676.48
2022-12-17T11:57:02.498Z,100682.77
2022-12-17T11:59:53.265Z,100685.13
2022-12-17T12:02:54.263Z,100684.30
2022-12-17T12:05:43.887Z,100698.70
2022-12-17T12:08:28.820Z,100697.71
2022-12-17T12:11:16.411Z,100687.38
2022-12-17T12:14:03.385Z,100693.33
2022-12-17T12:16:51.956Z,100701.39
2022-12-17T12:19:38.212Z,100691.97
2022-12-17T12:22:30.751Z,100693.94
2022-12-17T12:25:30.314Z,100701.92
2022-12-17T12:28:21.095Z,100699.99
2022-12-17T12:31:10.109Z,100711.05
2022-12-17T12:33:57.198Z,100717.11
2022-12-17T12:36:42.468Z,100724.91
2022-12-17T12:39:29.283Z,100727.62
2022-12-17T12:42:13.689Z,100734.98
2022-12-17T12:45:01.647Z,100735.30
2022-12-17T12:47:49.335Z,100741.64
2022-12-17T12:50:36.523Z,100737.91
2022-12-17T12:53:19.802Z,100736.86
2022-12-17T12:56:03.451Z,100742.27
2022-12-17T12:58:47.381Z,100742.02
2022-12-17T13:01:26.787Z,100740.50
2022-12-17T13:04:11.686Z,100737.98
2022-12-17T13:06:40.816Z,100737.58
2022-12-17T13:09:07.890Z,100739.50
2022-12-17T13:11:38.273Z,100747.33
2022-12-17T13:14:08.199Z,100750.59
2022-12-17T13:16:38.824Z,100750.15
2022-12-17T13:19:05.857Z,100746.94
2022-12-17T13:21:31.956Z,100747.01
2022-12-17T13:23:57.640Z,100747.52
2022-12-17T13:26:25.030Z,100750.85
2022-12-17T13:28:59.416Z,100749.63
2022-12-17T13:31:27.764Z,100758.41
2022-12-17T13:33:57.944Z,100762.42
2022-12-17T13:36:27.895Z,100762.48
2022-12-17T13:38:57.592Z,100760.52
2022-12-17T13:41:27.912Z,100763.71
2022-12-17T13:43:54.705Z,100764.73
2022-12-17T13:46:21.672Z,100763.71
2022-12-17T13:48:53.015Z,100762.55
2022-12-17T13:51:21.115Z,100770.03
2022-12-17T13:53:52.391Z,100771.69
2022-12-17T13:56:23.048Z,100773.98
2022-12-17T13:58:51.692Z,100771.67
2022-12-17T14:01:17.352Z,100771.09
2022-12-17T14:04:05.195Z,100778.15
2022-12-17T14:06:34.277Z,100785.70
2022-12-17T14:09:00.250Z,100785.84
2022-12-17T14:11:39.727Z,100793.64
2022-12-17T14:14:05.667Z,100792.44
2022-12-17T14:16:31.361Z,100794.48
2022-12-17T14:18:57.854Z,100794.62
2022-12-17T14:21:24.120Z,100801.40
2022-12-17T14:23:50.587Z,100804.35
2022-12-17T14:26:16.106Z,100810.88
2022-12-17T14:28:50.432Z,100817.57
2022-12-17T14:31:28.186Z,100826.70
2022-12-17T14:34:07.492Z,100832.60
2022-12-17T14:36:33.744Z,100843.30
2022-12-17T14:39:00.463Z,100841.09
2022-12-17T14:41:43.975Z,100843.87
2022-12-17T14:44:21.380Z,100842.64
2022-12-17T14:46:47.514Z,100844.26
2022-12-17T14:49:18.391Z,100847.96
2022-12-17T14:51:44.153Z,100848.36
2022-12-17T14:54:20.883Z,100851.73
2022-12-17T14:56:47.060Z,100855.80
2022-12-17T14:59:25.232Z,100856.04
2022-12-17T15:01:55.726Z,100859.48
2022-12-17T15:04:22.414Z,100854.83
2022-12-17T15:06:48.016Z,100856.38
2022-12-17T15:09:14.567Z,100861.49
2022-12-17T15:11:39.994Z,100867.91
2022-12-17T15:14:05.573Z,100869.27
2022-12-17T15:16:31.880Z,100873.20
2022-12-17T15:18:57.285Z,100881.42
2022-12-17T15:21:23.066Z,100879.26
2022-12-17T15:23:48.930Z,100883.67
2022-12-17T15:26:15.271Z,100885.19
2022-12-17T15:28:40.845Z,100892.72
2022-12-17T15:31:07.387Z,100894.81
2022-12-17T15:33:33.002Z,100895.36
2022-12-17T15:35:58.628Z,100896.20
2022-12-17T15:38:24.788Z,100897.29
2022-12-17T15:40:50.136Z,100901.42
2022-12-17T15:43:16.068Z,100897.27
2022-12-17T15:45:42.263Z,100897.27
2022-12-17T15:48:07.738Z,100902.25
2022-12-17T15:50:33.316Z,100908.52
2022-12-17T15:52:58.974Z,100915.02
2022-12-17T15:55:24.643Z,100917.06
2022-12-17T15:57:50.107Z,100918.24
2022-12-17T16:00:16.328Z,100915.20
2022-12-17T16:02:42.156Z,100919.45
2022-12-17T16:05:08.568Z,100928.07
2022-12-17T16:07:34.273Z,100937.86
2022-12-17T16:10:04.767Z,100938.25
2022-12-17T16:12:30.359Z,100936.04
2022-12-17T16:14:56.056Z,100930.35
2022-12-17T16:17:21.850Z,100934.20
2022-12-17T16:19:47.230Z,100935.48
2022-12-17T16:22:12.754Z,100935.83
2022-12-17T16:24:38.334Z,100940.06
2022-12-17T16:27:04.814Z,100942.94
2022-12-17T16:29:30.533Z,100944.40
2022-12-17T16:31:56.437Z,100942.76
2022-12-17T16:34:21.841Z,100941.38
2022-12-17T16:36:47.326Z,100948.00
2022-12-17T16:39:16.147Z,100953.85
2022-12-17T16:41:41.783Z,100953.10
2022-12-17T16:44:07.348Z,100958.98
2022-12-17T16:46:34.344Z,100970.01
2022-12-17T16:49:00.736Z,100975.29
2022-12-17T16:51:29.165Z,100977.20
2022-12-17T16:53:55.312Z,100982.27
2022-12-17T16:56:22.010Z,100982.39
2022-12-17T16:58:47.876Z,100986.48
2022-12-17T17:01:14.031Z,100985.15
2022-12-17T17:03:41.739Z,100986.92
2022-12-17T17:06:07.851Z,100990.94
2022-12-17T17:08:33.259Z,100996.80
2022-12-17T17:10:58.812Z,100998.30
2022-12-17T17:13:24.519Z,100997.73
2022-12-17T17:15:49.952Z,101008.78
2022-12-17T17:18:15.367Z,101016.83
2022-12-17T17:20:40.856Z,101020.16
2022-12-17T17:23:06.161Z,101026.29
2022-12-17T17:25:50.624Z,101030.48
2022-12-17T17:28:16.966Z,101030.48
2022-12-17T17:30:42.506Z,101027.86
2022-12-17T17:33:07.813Z,101028.09
2022-12-17T17:35:33.414Z,101024.23
2022-12-17T17:37:58.937Z,101026.63
2022-12-17T17:40:24.503Z,101025.86
2022-12-17T17:42:53.008Z,101023.27
2022-12-17T17:45:18.735Z,101027.66
2022-12-17T17:47:44.147Z,101036.08
2022-12-17T17:50:10.217Z,101039.86
2022-12-17T17:52:35.813Z,101041.55
2022-12-17T17:55:01.246Z,101039.27
2022-12-17T17:57:26.760Z,101033.89
2022-12-17T17:59:52.139Z,101035.98
2022-12-17T18:02:17.747Z,101046.64
2022-12-17T18:04:43.413Z,101052.23
2022-12-17T18:07:25.136Z,101051.08
2022-12-17T18:09:51.696Z,101057.02
2022-12-17T18:12:34.756Z,101056.73
2022-12-17T18:15:17.309Z,101059.60
2022-12-17T18:17:44.451Z,101061.13
2022-12-17T18:20:11.549Z,101070.02
2022-12-17T18:22:36.833Z,101076.39
2022-12-17T18:25:02.525Z,101080.42
2022-12-17T18:27:27.911Z,101081.08
2022-12-17T18:29:53.761Z,101087.29
2022-12-17T18:32:19.075Z,101093.02
2022-12-17T18:34:44.650Z,101094.36
2022-12-17T18:37:10.064Z,101095.50
2022-12-17T18:39:36.745Z,101097.29
2022-12-17T18:42:19.792Z,101098.77
2022-12-17T18:44:45.353Z,101107.46
2022-12-17T18:47:11.333Z,101113.79
2022-12-17T18:49:37.003Z,101112.84
2022-12-17T18:52:02.653Z,101111.77
2022-12-17T18:54:29.983Z,101110.45
2022-12-17T18:57:01.927Z,101113.89
2022-12-17T18:59:29.395Z,101125.44
2022-12-17T19:01:56.559Z,101127.81
2022-12-17T19:04:22.843Z,101132.90
2022-12-17T19:06:51.792Z,101129.22
2022-12-17T19:09:19.008Z,101132.02
2022-12-17T19:11:45.788Z,101130.29
2022-12-17T19:14:11.324Z,101132.52
2022-12-17T19:16:36.723Z,101128.69
2022-12-17T19:19:03.425Z,101128.54
2022-12-17T19:21:29.087Z,101137.17
2022-12-17T19:23:58.399Z,101141.03
2022-12-17T19:26:23.952Z,101141.64
2022-12-17T19:28:50.206Z,101141.94
2022-12-17T19:31:16.727Z,101147.66
2022-12-17T19:33:42.346Z,101150.94
2022-12-17T19:36:12.496Z,101152.35
2022-12-17T19:38:38.371Z,101154.34
2022-12-17T19:41:08.408Z,101153.57
2022-12-17T19:43:34.009Z,101156.21
2022-12-17T19:46:04.368Z,101159.77
2022-12-17T19:48:31.074Z,101166.52
2022-12-17T19:50:59.947Z,101167.69
2022-12-17T19:53:27.369Z,101171.48
2022-12-17T19:55:52.774Z,101177.25
2022-12-17T19:58:18.576Z,101176.48
2022-12-17T20:00:44.322Z,101179.63
2022-12-17T20:03:10.164Z,101180.58
2022-12-17T20:05:35.702Z,101184.16
2022-12-17T20:08:01.275Z,101188.40
2022-12-17T20:10:26.627Z,101188.10
2022-12-17T20:12:52.013Z,101189.72
2022-12-17T20:15:17.352Z,101192.04
2022-12-17T20:17:42.689Z,101190.66
2022-12-17T20:20:09.069Z,101191.11
2022-12-17T20:22:34.809Z,101192.52
2022-12-17T20:25:02.051Z,101193.41
2022-12-17T20:27:27.580Z,101199.39
2022-12-17T20:29:53.813Z,101202.35
2022-12-17T20:32:21.595Z,101203.55
2022-12-17T20:34:47.031Z,101207.71
2022-12-17T20:37:12.599Z,101213.15
2022-12-17T20:39:38.133Z,101218.98
2022-12-17T20:42:03.678Z,101216.33
2022-12-17T20:44:29.255Z,101222.60
2022-12-17T20:46:54.915Z,101228.91
2022-12-17T20:49:20.562Z,101230.73
2022-12-17T20:51:46.046Z,101231.84
2022-12-17T20:54:12.069Z,101237.91
2022-12-17T20:56:37.399Z,101239.36
2022-12-17T20:59:04.410Z,101241.37
2022-12-17T21:01:31.038Z,101243.05
2022-12-17T21:03:57.056Z,101252.41
2022-12-17T21:06:23.211Z,101256.41
2022-12-17T21:08:50.411Z,101256.45
2022-12-17T21:11:16.637Z,101262.65
2022-12-17T21:13:42.500Z,101262.71
2022-12-17T21:16:11.298Z,101263.09
2022-12-17T21:18:37.459Z,101264.06
2022-12-17T21:21:05.241Z,101261.76
2022-12-17T21:23:30.721Z,101259.10
2022-12-17T21:26:03.925Z,101260.00
2022-12-17T21:28:35.176Z,101276.17
2022-12-17T21:31:00.550Z,101284.54
2022-12-17T21:33:25.994Z,101290.25
2022-12-17T21:35:51.529Z,101287.61
2022-12-17T21:38:17.385Z,101286.30
2022-12-17T21:40:42.734Z,101283.95
2022-12-17T21:43:08.412Z,101288.41
2022-12-17T21:45:38.524Z,101292.67
2022-12-17T21:48:04.384Z,101303.23
2022-12-17T21:50:40.557Z,101303.01
2022-12-17T21:53:06.230Z,101302.33
2022-12-17T21:55:31.635Z,101296.45
2022-12-17T21:57:57.173Z,101293.04
2022-12-17T22:00:22.719Z,101295.31
2022-12-17T22:02:48.483Z,101299.23
2022-12-17T22:05:17.834Z,101304.95
2022-12-17T22:07:44.363Z,101301.88
2022-12-17T22:10:34.528Z,101296.86
2022-12-17T22:13:23.726Z,101303.05
2022-12-17T22:15:49.147Z,101305.95
2022-12-17T22:18:14.799Z,101312.44
2022-12-17T22:20:40.306Z,101318.55
2022-12-17T22:23:06.055Z,101321.48
2022-12-17T22:25:31.718Z,101319.61
2022-12-17T22:27:57.399Z,101321.07
2022-12-17T22:30:40.496Z,101326.17
2022-12-17T22:33:38.508Z,101328.69
2022-12-17T22:38:55.781Z,101342.11
2022-12-17T22:42:10.679Z,101349.85
2022-12-17T22:44:37.807Z,101356.55
2022-12-17T22:44:45.171Z,101353.90
2022-12-17T22:47:13.453Z,101352.48
2022-12-17T22:49:39.102Z,101358.16
2022-12-17T22:52:04.907Z,101368.04
2022-12-17T22:54:30.570Z,101378.92
2022-12-17T22:57:28.625Z,101377.23
2022-12-17T22:59:42.205Z,101379.98
2022-12-17T23:02:09.412Z,101380.98
2022-12-17T23:04:34.952Z,101386.94
2022-12-17T23:07:00.708Z,101383.78
2022-12-17T23:09:27.023Z,101381.41
2022-12-17T23:11:52.380Z,101379.77
2022-12-17T23:14:18.261Z,101379.31
2022-12-17T23:16:43.918Z,101378.94
2022-12-17T23:19:09.565Z,101374.25
2022-12-17T23:21:35.148Z,101370.83
2022-12-17T23:24:00.936Z,101366.40
2022-12-17T23:26:27.138Z,101362.64
2022-12-17T23:28:57.228Z,101364.45
2022-12-17T23:31:22.890Z,101366.08
2022-12-17T23:33:48.540Z,101374.10
2022-12-17T23:36:14.697Z,101370.63
2022-12-17T23:38:40.267Z,101377.48
2022-12-17T23:41:07.190Z,101378.84
2022-12-17T23:43:32.613Z,101386.71
2022-12-17T23:46:00.171Z,101386.21
2022-12-17T23:48:25.511Z,101393.20
2022-12-17T23:50:51.076Z,101397.08
2022-12-17T23:53:16.424Z,101403.78
2022-12-17T23:55:42.115Z,101410.43
2022-12-17T23:58:07.415Z,101414.12
